sensor_id;sensor_type;location;lat;lon;timestamp;temperature;humidity
75387;DHT22;63966;47.914;22.266;2024-03-25T00:02:49;3.58;80.25
75387;DHT22;63966;47.914;22.266;2024-03-25T00:05:52;3.79;79.79
75387;DHT22;63966;47.914;22.266;2024-03-25T00:08:54;3.75;80.10
75387;DHT22;63966;47.914;22.266;2024-03-25T00:11:56;3.77;79.59
75387;DHT22;63966;47.914;22.266;2024-03-25T00:15:00;3.63;79.92
75387;DHT22;63966;47.914;22.266;2024-03-25T00:18:03;3.66;80.63
75387;DHT22;63966;47.914;22.266;2024-03-25T00:21:06;3.42;80.86
75387;DHT22;63966;47.914;22.266;2024-03-25T00:24:08;3.43;81.15
75387;DHT22;63966;47.914;22.266;2024-03-25T00:27:10;3.48;81.18
75387;DHT22;63966;47.914;22.266;2024-03-25T00:30:13;3.38;81.27
75387;DHT22;63966;47.914;22.266;2024-03-25T00:33:15;3.25;81.51
75387;DHT22;63966;47.914;22.266;2024-03-25T00:36:19;3.34;81.13
75387;DHT22;63966;47.914;22.266;2024-03-25T00:39:21;3.38;81.45
75387;DHT22;63966;47.914;22.266;2024-03-25T00:42:27;3.27;81.37
75387;DHT22;63966;47.914;22.266;2024-03-25T00:45:30;3.32;81.28
75387;DHT22;63966;47.914;22.266;2024-03-25T00:48:35;3.14;82.17
75387;DHT22;63966;47.914;22.266;2024-03-25T00:51:38;3.21;81.75
75387;DHT22;63966;47.914;22.266;2024-03-25T00:54:40;2.99;82.33
75387;DHT22;63966;47.914;22.266;2024-03-25T00:57:42;2.91;82.83
75387;DHT22;63966;47.914;22.266;2024-03-25T01:00:45;2.79;83.14
75387;DHT22;63966;47.914;22.266;2024-03-25T01:03:48;2.89;83.16
75387;DHT22;63966;47.914;22.266;2024-03-25T01:06:50;2.72;83.27
75387;DHT22;63966;47.914;22.266;2024-03-25T01:09:53;2.66;83.43
75387;DHT22;63966;47.914;22.266;2024-03-25T01:12:55;2.64;83.23
75387;DHT22;63966;47.914;22.266;2024-03-25T01:15:59;2.35;84.26
75387;DHT22;63966;47.914;22.266;2024-03-25T01:19:01;2.18;84.87
75387;DHT22;63966;47.914;22.266;2024-03-25T01:22:04;2.46;84.08
75387;DHT22;63966;47.914;22.266;2024-03-25T01:25:07;2.18;84.68
75387;DHT22;63966;47.914;22.266;2024-03-25T01:28:10;2.00;85.28
75387;DHT22;63966;47.914;22.266;2024-03-25T01:31:12;1.94;85.76
75387;DHT22;63966;47.914;22.266;2024-03-25T01:34:15;2.03;85.82
75387;DHT22;63966;47.914;22.266;2024-03-25T01:37:17;1.93;86.12
75387;DHT22;63966;47.914;22.266;2024-03-25T01:40:19;2.04;85.05
75387;DHT22;63966;47.914;22.266;2024-03-25T01:43:22;1.76;86.51
75387;DHT22;63966;47.914;22.266;2024-03-25T01:46:24;1.91;86.68
75387;DHT22;63966;47.914;22.266;2024-03-25T01:49:27;1.71;86.88
75387;DHT22;63966;47.914;22.266;2024-03-25T01:52:30;1.67;87.17
75387;DHT22;63966;47.914;22.266;2024-03-25T01:55:34;1.76;87.63
75387;DHT22;63966;47.914;22.266;2024-03-25T01:58:37;1.66;87.33
75387;DHT22;63966;47.914;22.266;2024-03-25T02:01:40;1.77;87.51
75387;DHT22;63966;47.914;22.266;2024-03-25T02:04:43;1.63;87.80
75387;DHT22;63966;47.914;22.266;2024-03-25T02:07:47;1.68;88.22
75387;DHT22;63966;47.914;22.266;2024-03-25T02:10:52;1.73;88.21
75387;DHT22;63966;47.914;22.266;2024-03-25T02:13:55;1.56;88.41
75387;DHT22;63966;47.914;22.266;2024-03-25T02:16:58;1.66;88.16
75387;DHT22;63966;47.914;22.266;2024-03-25T02:20:01;1.66;88.41
75387;DHT22;63966;47.914;22.266;2024-03-25T02:23:05;1.70;87.91
75387;DHT22;63966;47.914;22.266;2024-03-25T02:26:07;1.67;88.32
75387;DHT22;63966;47.914;22.266;2024-03-25T02:29:10;1.76;87.88
75387;DHT22;63966;47.914;22.266;2024-03-25T02:32:12;1.83;87.48
75387;DHT22;63966;47.914;22.266;2024-03-25T02:35:16;1.53;87.93
75387;DHT22;63966;47.914;22.266;2024-03-25T02:38:19;1.56;88.33
75387;DHT22;63966;47.914;22.266;2024-03-25T02:41:22;1.60;88.02
75387;DHT22;63966;47.914;22.266;2024-03-25T02:44:26;1.45;88.25
75387;DHT22;63966;47.914;22.266;2024-03-25T02:47:29;1.38;88.42
75387;DHT22;63966;47.914;22.266;2024-03-25T02:50:32;1.28;88.68
75387;DHT22;63966;47.914;22.266;2024-03-25T02:53:34;1.29;88.86
75387;DHT22;63966;47.914;22.266;2024-03-25T02:56:37;1.19;88.63
75387;DHT22;63966;47.914;22.266;2024-03-25T02:59:39;1.29;88.05
75387;DHT22;63966;47.914;22.266;2024-03-25T03:02:41;1.07;88.95
75387;DHT22;63966;47.914;22.266;2024-03-25T03:05:44;0.95;89.02
75387;DHT22;63966;47.914;22.266;2024-03-25T03:08:46;0.92;88.93
75387;DHT22;63966;47.914;22.266;2024-03-25T03:11:49;0.97;89.03
75387;DHT22;63966;47.914;22.266;2024-03-25T03:14:51;0.95;89.65
75387;DHT22;63966;47.914;22.266;2024-03-25T03:17:53;0.90;89.63
75387;DHT22;63966;47.914;22.266;2024-03-25T03:20:56;0.74;89.96
75387;DHT22;63966;47.914;22.266;2024-03-25T03:23:59;0.61;90.51
75387;DHT22;63966;47.914;22.266;2024-03-25T03:27:01;0.76;90.05
75387;DHT22;63966;47.914;22.266;2024-03-25T03:30:04;0.59;90.23
75387;DHT22;63966;47.914;22.266;2024-03-25T03:33:07;0.49;90.55
75387;DHT22;63966;47.914;22.266;2024-03-25T03:36:09;0.42;90.91
75387;DHT22;63966;47.914;22.266;2024-03-25T03:39:12;0.35;91.10
75387;DHT22;63966;47.914;22.266;2024-03-25T03:42:15;0.32;91.36
75387;DHT22;63966;47.914;22.266;2024-03-25T03:45:18;0.25;91.22
75387;DHT22;63966;47.914;22.266;2024-03-25T03:48:20;0.22;91.24
75387;DHT22;63966;47.914;22.266;2024-03-25T03:51:23;0.16;91.37
75387;DHT22;63966;47.914;22.266;2024-03-25T03:54:25;0.11;90.81
75387;DHT22;63966;47.914;22.266;2024-03-25T03:57:27;-0.09;91.31
75387;DHT22;63966;47.914;22.266;2024-03-25T04:00:32;-0.18;91.82
75387;DHT22;63966;47.914;22.266;2024-03-25T04:03:35;-0.10;91.61
75387;DHT22;63966;47.914;22.266;2024-03-25T04:06:38;-0.10;91.99
75387;DHT22;63966;47.914;22.266;2024-03-25T04:09:42;-0.12;92.23
75387;DHT22;63966;47.914;22.266;2024-03-25T04:12:44;-0.09;92.14
75387;DHT22;63966;47.914;22.266;2024-03-25T04:15:47;-0.05;92.18
75387;DHT22;63966;47.914;22.266;2024-03-25T04:18:49;-0.02;92.01
75387;DHT22;63966;47.914;22.266;2024-03-25T04:21:52;0.05;91.82
75387;DHT22;63966;47.914;22.266;2024-03-25T04:24:55;0.03;91.75
75387;DHT22;63966;47.914;22.266;2024-03-25T04:27:57;0.09;91.58
75387;DHT22;63966;47.914;22.266;2024-03-25T04:31:00;0.05;91.39
75387;DHT22;63966;47.914;22.266;2024-03-25T04:34:02;0.11;91.41
75387;DHT22;63966;47.914;22.266;2024-03-25T04:37:05;0.03;91.52
75387;DHT22;63966;47.914;22.266;2024-03-25T04:40:08;0.02;91.68
75387;DHT22;63966;47.914;22.266;2024-03-25T04:43:10;1.08;90.48
75387;DHT22;63966;47.914;22.266;2024-03-25T04:46:13;2.97;82.97
75387;DHT22;63966;47.914;22.266;2024-03-25T04:49:15;4.35;75.72
75387;DHT22;63966;47.914;22.266;2024-03-25T04:52:17;5.48;70.57
75387;DHT22;63966;47.914;22.266;2024-03-25T04:55:20;6.27;67.74
75387;DHT22;63966;47.914;22.266;2024-03-25T04:58:23;7.37;64.36
75387;DHT22;63966;47.914;22.266;2024-03-25T05:01:25;7.99;59.64
75387;DHT22;63966;47.914;22.266;2024-03-25T05:04:27;8.46;56.34
75387;DHT22;63966;47.914;22.266;2024-03-25T05:07:30;9.25;54.31
75387;DHT22;63966;47.914;22.266;2024-03-25T05:10:33;9.77;53.22
75387;DHT22;63966;47.914;22.266;2024-03-25T05:13:35;8.15;56.94
75387;DHT22;63966;47.914;22.266;2024-03-25T05:16:38;7.24;60.88
75387;DHT22;63966;47.914;22.266;2024-03-25T05:19:40;8.05;59.21
75387;DHT22;63966;47.914;22.266;2024-03-25T05:22:42;7.42;60.71
75387;DHT22;63966;47.914;22.266;2024-03-25T05:25:45;7.79;61.24
75387;DHT22;63966;47.914;22.266;2024-03-25T05:28:52;9.35;56.83
75387;DHT22;63966;47.914;22.266;2024-03-25T05:31:59;10.21;54.58
75387;DHT22;63966;47.914;22.266;2024-03-25T05:35:01;9.80;55.63
75387;DHT22;63966;47.914;22.266;2024-03-25T05:38:05;9.97;55.87
75387;DHT22;63966;47.914;22.266;2024-03-25T05:41:07;10.57;54.35
75387;DHT22;63966;47.914;22.266;2024-03-25T05:44:09;10.36;55.14
75387;DHT22;63966;47.914;22.266;2024-03-25T05:47:12;10.87;55.13
75387;DHT22;63966;47.914;22.266;2024-03-25T05:50:16;11.66;52.42
75387;DHT22;63966;47.914;22.266;2024-03-25T05:53:18;12.03;52.07
75387;DHT22;63966;47.914;22.266;2024-03-25T05:56:21;12.27;50.33
75387;DHT22;63966;47.914;22.266;2024-03-25T05:59:23;13.95;47.13
75387;DHT22;63966;47.914;22.266;2024-03-25T06:02:26;13.94;48.15
75387;DHT22;63966;47.914;22.266;2024-03-25T06:05:28;13.14;49.62
75387;DHT22;63966;47.914;22.266;2024-03-25T06:08:31;13.65;48.31
75387;DHT22;63966;47.914;22.266;2024-03-25T06:11:34;14.48;45.87
75387;DHT22;63966;47.914;22.266;2024-03-25T06:14:36;15.59;45.42
75387;DHT22;63966;47.914;22.266;2024-03-25T06:17:40;16.87;42.53
75387;DHT22;63966;47.914;22.266;2024-03-25T06:20:42;16.99;41.55
75387;DHT22;63966;47.914;22.266;2024-03-25T06:23:44;17.04;41.24
75387;DHT22;63966;47.914;22.266;2024-03-25T06:26:47;17.11;40.51
75387;DHT22;63966;47.914;22.266;2024-03-25T06:29:49;15.96;42.79
75387;DHT22;63966;47.914;22.266;2024-03-25T06:33:12;15.73;42.50
75387;DHT22;63966;47.914;22.266;2024-03-25T06:36:33;16.18;42.43
75387;DHT22;63966;47.914;22.266;2024-03-25T06:39:37;16.01;41.93
75387;DHT22;63966;47.914;22.266;2024-03-25T06:42:39;16.42;41.31
75387;DHT22;63966;47.914;22.266;2024-03-25T06:45:42;16.94;41.42
75387;DHT22;63966;47.914;22.266;2024-03-25T06:48:44;17.11;41.60
75387;DHT22;63966;47.914;22.266;2024-03-25T06:51:47;16.94;41.82
75387;DHT22;63966;47.914;22.266;2024-03-25T06:54:49;16.86;41.80
75387;DHT22;63966;47.914;22.266;2024-03-25T06:57:51;16.67;40.77
75387;DHT22;63966;47.914;22.266;2024-03-25T07:00:56;17.85;38.56
75387;DHT22;63966;47.914;22.266;2024-03-25T07:03:59;17.68;40.31
75387;DHT22;63966;47.914;22.266;2024-03-25T07:07:01;17.53;40.97
75387;DHT22;63966;47.914;22.266;2024-03-25T07:10:04;18.98;37.83
75387;DHT22;63966;47.914;22.266;2024-03-25T07:13:07;18.03;39.26
75387;DHT22;63966;47.914;22.266;2024-03-25T07:16:09;18.49;37.23
75387;DHT22;63966;47.914;22.266;2024-03-25T07:19:12;17.35;38.27
75387;DHT22;63966;47.914;22.266;2024-03-25T07:22:15;18.00;38.21
75387;DHT22;63966;47.914;22.266;2024-03-25T07:25:37;18.72;39.32
75387;DHT22;63966;47.914;22.266;2024-03-25T07:28:39;19.78;36.09
75387;DHT22;63966;47.914;22.266;2024-03-25T07:32:02;19.40;35.75
75387;DHT22;63966;47.914;22.266;2024-03-25T07:35:05;18.61;37.69
75387;DHT22;63966;47.914;22.266;2024-03-25T07:38:09;18.44;38.55
75387;DHT22;63966;47.914;22.266;2024-03-25T07:41:11;18.59;37.78
75387;DHT22;63966;47.914;22.266;2024-03-25T07:44:16;19.03;37.89
75387;DHT22;63966;47.914;22.266;2024-03-25T07:47:18;18.31;37.66
75387;DHT22;63966;47.914;22.266;2024-03-25T07:50:21;18.64;37.91
75387;DHT22;63966;47.914;22.266;2024-03-25T07:53:23;18.28;39.04
75387;DHT22;63966;47.914;22.266;2024-03-25T07:56:26;17.46;40.57
75387;DHT22;63966;47.914;22.266;2024-03-25T07:59:28;19.15;38.72
75387;DHT22;63966;47.914;22.266;2024-03-25T08:02:32;18.67;37.97
75387;DHT22;63966;47.914;22.266;2024-03-25T08:05:34;18.04;38.78
75387;DHT22;63966;47.914;22.266;2024-03-25T08:08:36;18.04;39.30
75387;DHT22;63966;47.914;22.266;2024-03-25T08:11:39;17.25;41.64
75387;DHT22;63966;47.914;22.266;2024-03-25T08:14:41;17.24;39.60
75387;DHT22;63966;47.914;22.266;2024-03-25T08:17:45;16.66;41.09
75387;DHT22;63966;47.914;22.266;2024-03-25T08:20:48;16.72;41.11
75387;DHT22;63966;47.914;22.266;2024-03-25T08:23:50;15.23;44.44
75387;DHT22;63966;47.914;22.266;2024-03-25T08:26:53;15.09;49.01
75387;DHT22;63966;47.914;22.266;2024-03-25T08:29:56;14.81;47.65
75387;DHT22;63966;47.914;22.266;2024-03-25T08:32:58;14.77;47.39
75387;DHT22;63966;47.914;22.266;2024-03-25T08:36:02;13.71;49.46
75387;DHT22;63966;47.914;22.266;2024-03-25T08:39:05;13.24;49.76
75387;DHT22;63966;47.914;22.266;2024-03-25T08:42:08;13.19;49.45
75387;DHT22;63966;47.914;22.266;2024-03-25T08:45:10;12.51;51.67
75387;DHT22;63966;47.914;22.266;2024-03-25T08:48:15;12.10;53.42
75387;DHT22;63966;47.914;22.266;2024-03-25T08:51:17;12.42;54.10
75387;DHT22;63966;47.914;22.266;2024-03-25T08:54:20;12.73;51.40
75387;DHT22;63966;47.914;22.266;2024-03-25T08:57:23;13.26;52.89
75387;DHT22;63966;47.914;22.266;2024-03-25T09:00:26;12.85;53.54
75387;DHT22;63966;47.914;22.266;2024-03-25T09:03:29;12.17;51.30
75387;DHT22;63966;47.914;22.266;2024-03-25T09:06:32;11.89;57.86
75387;DHT22;63966;47.914;22.266;2024-03-25T09:09:34;12.72;53.75
75387;DHT22;63966;47.914;22.266;2024-03-25T09:12:55;11.93;52.47
75387;DHT22;63966;47.914;22.266;2024-03-25T09:15:58;11.65;54.13
75387;DHT22;63966;47.914;22.266;2024-03-25T09:19:03;11.55;52.80
75387;DHT22;63966;47.914;22.266;2024-03-25T09:22:07;11.14;54.90
75387;DHT22;63966;47.914;22.266;2024-03-25T09:25:09;11.83;53.90
75387;DHT22;63966;47.914;22.266;2024-03-25T09:28:13;11.75;53.43
75387;DHT22;63966;47.914;22.266;2024-03-25T09:31:16;11.01;57.76
75387;DHT22;63966;47.914;22.266;2024-03-25T09:34:18;11.91;54.38
75387;DHT22;63966;47.914;22.266;2024-03-25T09:37:27;12.79;54.04
75387;DHT22;63966;47.914;22.266;2024-03-25T09:40:53;13.17;51.17
75387;DHT22;63966;47.914;22.266;2024-03-25T09:43:59;12.14;51.91
75387;DHT22;63966;47.914;22.266;2024-03-25T09:47:03;11.65;55.26
75387;DHT22;63966;47.914;22.266;2024-03-25T09:50:07;12.27;53.44
75387;DHT22;63966;47.914;22.266;2024-03-25T09:53:10;12.55;51.95
75387;DHT22;63966;47.914;22.266;2024-03-25T09:56:14;12.40;50.66
75387;DHT22;63966;47.914;22.266;2024-03-25T09:59:20;12.33;51.00
75387;DHT22;63966;47.914;22.266;2024-03-25T10:02:25;12.42;50.20
75387;DHT22;63966;47.914;22.266;2024-03-25T10:05:28;12.34;49.86
75387;DHT22;63966;47.914;22.266;2024-03-25T10:08:31;12.35;51.22
75387;DHT22;63966;47.914;22.266;2024-03-25T10:11:34;12.31;50.80
75387;DHT22;63966;47.914;22.266;2024-03-25T10:14:40;12.03;50.77
75387;DHT22;63966;47.914;22.266;2024-03-25T10:17:44;11.86;50.81
75387;DHT22;63966;47.914;22.266;2024-03-25T10:20:53;12.34;51.55
75387;DHT22;63966;47.914;22.266;2024-03-25T10:23:58;13.10;50.45
75387;DHT22;63966;47.914;22.266;2024-03-25T10:27:01;13.75;50.28
75387;DHT22;63966;47.914;22.266;2024-03-25T10:30:04;13.77;47.88
75387;DHT22;63966;47.914;22.266;2024-03-25T10:33:08;14.16;48.12
75387;DHT22;63966;47.914;22.266;2024-03-25T10:36:10;14.02;46.66
75387;DHT22;63966;47.914;22.266;2024-03-25T10:39:13;13.21;44.13
75387;DHT22;63966;47.914;22.266;2024-03-25T10:42:19;13.24;46.81
75387;DHT22;63966;47.914;22.266;2024-03-25T10:45:22;13.71;47.40
75387;DHT22;63966;47.914;22.266;2024-03-25T10:48:44;13.94;44.88
75387;DHT22;63966;47.914;22.266;2024-03-25T10:51:50;13.95;43.52
75387;DHT22;63966;47.914;22.266;2024-03-25T10:54:56;13.48;44.75
75387;DHT22;63966;47.914;22.266;2024-03-25T10:58:00;13.24;46.74
75387;DHT22;63966;47.914;22.266;2024-03-25T11:01:23;13.51;46.49
75387;DHT22;63966;47.914;22.266;2024-03-25T11:04:29;13.77;43.44
75387;DHT22;63966;47.914;22.266;2024-03-25T11:07:34;13.88;44.04
75387;DHT22;63966;47.914;22.266;2024-03-25T11:10:43;13.57;43.86
75387;DHT22;63966;47.914;22.266;2024-03-25T11:13:49;13.12;45.45
75387;DHT22;63966;47.914;22.266;2024-03-25T11:16:56;12.31;47.58
75387;DHT22;63966;47.914;22.266;2024-03-25T11:20:16;12.23;47.16
75387;DHT22;63966;47.914;22.266;2024-03-25T11:23:20;12.55;45.41
75387;DHT22;63966;47.914;22.266;2024-03-25T11:26:25;13.41;47.79
75387;DHT22;63966;47.914;22.266;2024-03-25T11:29:30;13.92;44.74
75387;DHT22;63966;47.914;22.266;2024-03-25T11:32:51;13.50;43.81
75387;DHT22;63966;47.914;22.266;2024-03-25T11:35:58;13.97;45.08
75387;DHT22;63966;47.914;22.266;2024-03-25T11:39:08;13.50;44.87
75387;DHT22;63966;47.914;22.266;2024-03-25T11:42:15;13.51;42.13
75387;DHT22;63966;47.914;22.266;2024-03-25T11:45:20;13.19;42.48
75387;DHT22;63966;47.914;22.266;2024-03-25T11:48:28;12.56;45.01
75387;DHT22;63966;47.914;22.266;2024-03-25T11:52:12;13.00;44.39
75387;DHT22;63966;47.914;22.266;2024-03-25T11:55:19;12.86;43.69
75387;DHT22;63966;47.914;22.266;2024-03-25T11:58:42;12.59;43.13
75387;DHT22;63966;47.914;22.266;2024-03-25T12:01:50;12.48;44.10
75387;DHT22;63966;47.914;22.266;2024-03-25T12:04:54;12.92;45.09
75387;DHT22;63966;47.914;22.266;2024-03-25T12:08:01;12.66;44.12
75387;DHT22;63966;47.914;22.266;2024-03-25T12:11:30;13.03;43.80
75387;DHT22;63966;47.914;22.266;2024-03-25T12:14:36;12.96;42.09
75387;DHT22;63966;47.914;22.266;2024-03-25T12:18:02;12.68;42.66
75387;DHT22;63966;47.914;22.266;2024-03-25T12:21:11;12.55;43.79
75387;DHT22;63966;47.914;22.266;2024-03-25T12:24:41;12.35;44.34
75387;DHT22;63966;47.914;22.266;2024-03-25T12:27:49;12.51;43.62
75387;DHT22;63966;47.914;22.266;2024-03-25T12:30:59;12.46;42.38
75387;DHT22;63966;47.914;22.266;2024-03-25T12:34:14;12.31;43.04
75387;DHT22;63966;47.914;22.266;2024-03-25T12:37:45;12.72;43.10
75387;DHT22;63966;47.914;22.266;2024-03-25T12:40:50;12.85;43.30
75387;DHT22;63966;47.914;22.266;2024-03-25T12:43:55;12.88;43.31
75387;DHT22;63966;47.914;22.266;2024-03-25T12:47:03;13.04;41.62
75387;DHT22;63966;47.914;22.266;2024-03-25T12:50:08;13.28;42.04
75387;DHT22;63966;47.914;22.266;2024-03-25T12:53:18;13.33;42.24
75387;DHT22;63966;47.914;22.266;2024-03-25T12:56:22;13.64;43.12
75387;DHT22;63966;47.914;22.266;2024-03-25T12:59:35;13.39;43.99
75387;DHT22;63966;47.914;22.266;2024-03-25T13:02:54;13.58;45.00
75387;DHT22;63966;47.914;22.266;2024-03-25T13:05:58;13.13;43.93
75387;DHT22;63966;47.914;22.266;2024-03-25T13:09:24;13.03;43.47
75387;DHT22;63966;47.914;22.266;2024-03-25T13:12:29;13.23;43.06
75387;DHT22;63966;47.914;22.266;2024-03-25T13:15:37;13.46;42.54
75387;DHT22;63966;47.914;22.266;2024-03-25T13:18:42;13.86;43.54
75387;DHT22;63966;47.914;22.266;2024-03-25T13:21:47;14.22;43.10
75387;DHT22;63966;47.914;22.266;2024-03-25T13:24:50;14.13;42.29
75387;DHT22;63966;47.914;22.266;2024-03-25T13:28:16;13.34;44.74
75387;DHT22;63966;47.914;22.266;2024-03-25T13:31:24;13.53;45.02
75387;DHT22;63966;47.914;22.266;2024-03-25T13:34:51;13.16;44.38
75387;DHT22;63966;47.914;22.266;2024-03-25T13:37:58;13.00;46.92
75387;DHT22;63966;47.914;22.266;2024-03-25T13:41:09;13.04;48.26
75387;DHT22;63966;47.914;22.266;2024-03-25T13:44:14;12.83;49.85
75387;DHT22;63966;47.914;22.266;2024-03-25T13:47:18;12.88;52.98
75387;DHT22;63966;47.914;22.266;2024-03-25T13:50:22;13.07;51.33
75387;DHT22;63966;47.914;22.266;2024-03-25T13:53:32;13.13;51.33
75387;DHT22;63966;47.914;22.266;2024-03-25T13:56:37;13.10;50.15
75387;DHT22;63966;47.914;22.266;2024-03-25T13:59:43;13.02;49.34
75387;DHT22;63966;47.914;22.266;2024-03-25T14:02:49;12.93;50.85
75387;DHT22;63966;47.914;22.266;2024-03-25T14:05:52;12.96;49.21
75387;DHT22;63966;47.914;22.266;2024-03-25T14:09:28;13.07;48.00
75387;DHT22;63966;47.914;22.266;2024-03-25T14:12:31;12.91;47.72
75387;DHT22;63966;47.914;22.266;2024-03-25T14:15:39;12.85;43.44
75387;DHT22;63966;47.914;22.266;2024-03-25T14:18:42;12.76;44.24
75387;DHT22;63966;47.914;22.266;2024-03-25T14:21:48;12.61;44.80
75387;DHT22;63966;47.914;22.266;2024-03-25T14:24:53;12.66;44.86
75387;DHT22;63966;47.914;22.266;2024-03-25T14:28:06;12.76;45.09
75387;DHT22;63966;47.914;22.266;2024-03-25T14:31:09;12.54;45.23
75387;DHT22;63966;47.914;22.266;2024-03-25T14:34:11;12.62;45.51
75387;DHT22;63966;47.914;22.266;2024-03-25T14:37:14;12.24;44.95
75387;DHT22;63966;47.914;22.266;2024-03-25T14:40:16;12.06;46.12
75387;DHT22;63966;47.914;22.266;2024-03-25T14:43:19;11.86;48.76
75387;DHT22;63966;47.914;22.266;2024-03-25T14:46:22;11.82;49.21
75387;DHT22;63966;47.914;22.266;2024-03-25T14:49:27;11.63;52.31
75387;DHT22;63966;47.914;22.266;2024-03-25T14:52:29;11.72;50.25
75387;DHT22;63966;47.914;22.266;2024-03-25T14:55:32;11.98;49.46
75387;DHT22;63966;47.914;22.266;2024-03-25T14:58:35;11.72;49.17
75387;DHT22;63966;47.914;22.266;2024-03-25T15:01:42;11.86;50.79
75387;DHT22;63966;47.914;22.266;2024-03-25T15:04:46;12.08;51.67
75387;DHT22;63966;47.914;22.266;2024-03-25T15:07:51;12.54;50.93
75387;DHT22;63966;47.914;22.266;2024-03-25T15:10:53;12.81;49.93
75387;DHT22;63966;47.914;22.266;2024-03-25T15:13:55;12.86;51.27
75387;DHT22;63966;47.914;22.266;2024-03-25T15:16:58;12.75;49.85
75387;DHT22;63966;47.914;22.266;2024-03-25T15:20:03;12.81;49.78
75387;DHT22;63966;47.914;22.266;2024-03-25T15:23:06;12.28;51.63
75387;DHT22;63966;47.914;22.266;2024-03-25T15:26:08;11.86;52.58
75387;DHT22;63966;47.914;22.266;2024-03-25T15:29:11;11.57;53.11
75387;DHT22;63966;47.914;22.266;2024-03-25T15:32:13;11.36;53.77
75387;DHT22;63966;47.914;22.266;2024-03-25T15:35:15;11.32;54.26
75387;DHT22;63966;47.914;22.266;2024-03-25T15:38:18;11.17;55.03
75387;DHT22;63966;47.914;22.266;2024-03-25T15:41:21;11.12;53.73
75387;DHT22;63966;47.914;22.266;2024-03-25T15:44:23;11.10;53.17
75387;DHT22;63966;47.914;22.266;2024-03-25T15:47:25;10.90;53.73
75387;DHT22;63966;47.914;22.266;2024-03-25T15:50:28;10.83;54.97
75387;DHT22;63966;47.914;22.266;2024-03-25T15:53:30;10.43;58.96
75387;DHT22;63966;47.914;22.266;2024-03-25T15:56:33;9.77;62.04
75387;DHT22;63966;47.914;22.266;2024-03-25T15:59:36;9.64;61.83
75387;DHT22;63966;47.914;22.266;2024-03-25T16:02:38;9.46;63.00
75387;DHT22;63966;47.914;22.266;2024-03-25T16:05:43;9.33;64.18
75387;DHT22;63966;47.914;22.266;2024-03-25T16:08:46;9.26;63.35
75387;DHT22;63966;47.914;22.266;2024-03-25T16:11:48;9.23;60.48
75387;DHT22;63966;47.914;22.266;2024-03-25T16:14:51;9.22;59.89
75387;DHT22;63966;47.914;22.266;2024-03-25T16:17:53;9.30;60.06
75387;DHT22;63966;47.914;22.266;2024-03-25T16:20:55;9.39;59.57
75387;DHT22;63966;47.914;22.266;2024-03-25T16:23:58;9.54;59.53
75387;DHT22;63966;47.914;22.266;2024-03-25T16:27:00;9.69;61.89
75387;DHT22;63966;47.914;22.266;2024-03-25T16:30:03;9.47;60.65
75387;DHT22;63966;47.914;22.266;2024-03-25T16:33:06;9.53;60.54
75387;DHT22;63966;47.914;22.266;2024-03-25T16:36:08;9.42;58.58
75387;DHT22;63966;47.914;22.266;2024-03-25T16:39:10;9.38;60.37
75387;DHT22;63966;47.914;22.266;2024-03-25T16:42:13;9.22;60.97
75387;DHT22;63966;47.914;22.266;2024-03-25T16:45:15;9.09;61.43
75387;DHT22;63966;47.914;22.266;2024-03-25T16:48:18;9.11;61.40
75387;DHT22;63966;47.914;22.266;2024-03-25T16:51:20;8.88;62.17
75387;DHT22;63966;47.914;22.266;2024-03-25T16:54:22;8.67;62.73
75387;DHT22;63966;47.914;22.266;2024-03-25T16:57:25;8.51;63.57
75387;DHT22;63966;47.914;22.266;2024-03-25T17:00:27;8.43;63.90
75387;DHT22;63966;47.914;22.266;2024-03-25T17:03:30;8.28;64.93
75387;DHT22;63966;47.914;22.266;2024-03-25T17:06:32;8.23;65.58
75387;DHT22;63966;47.914;22.266;2024-03-25T17:09:35;8.12;66.23
75387;DHT22;63966;47.914;22.266;2024-03-25T17:12:37;8.10;67.43
75387;DHT22;63966;47.914;22.266;2024-03-25T17:15:40;7.86;66.74
75387;DHT22;63966;47.914;22.266;2024-03-25T17:18:43;8.05;66.37
75387;DHT22;63966;47.914;22.266;2024-03-25T17:21:45;7.99;67.12
75387;DHT22;63966;47.914;22.266;2024-03-25T17:24:48;8.10;66.06
75387;DHT22;63966;47.914;22.266;2024-03-25T17:27:50;8.10;65.74
75387;DHT22;63966;47.914;22.266;2024-03-25T17:30:53;8.06;65.75
75387;DHT22;63966;47.914;22.266;2024-03-25T17:33:55;8.06;65.90
75387;DHT22;63966;47.914;22.266;2024-03-25T17:36:57;7.95;65.54
75387;DHT22;63966;47.914;22.266;2024-03-25T17:40:00;7.78;66.38
75387;DHT22;63966;47.914;22.266;2024-03-25T17:43:04;7.75;65.99
75387;DHT22;63966;47.914;22.266;2024-03-25T17:46:07;7.54;67.33
75387;DHT22;63966;47.914;22.266;2024-03-25T17:49:11;7.36;67.62
75387;DHT22;63966;47.914;22.266;2024-03-25T17:52:13;7.34;67.55
75387;DHT22;63966;47.914;22.266;2024-03-25T17:55:15;7.15;67.69
75387;DHT22;63966;47.914;22.266;2024-03-25T17:58:19;7.07;67.72
75387;DHT22;63966;47.914;22.266;2024-03-25T18:01:22;7.05;68.56
75387;DHT22;63966;47.914;22.266;2024-03-25T18:04:25;6.95;68.06
75387;DHT22;63966;47.914;22.266;2024-03-25T18:07:27;6.81;68.59
75387;DHT22;63966;47.914;22.266;2024-03-25T18:10:31;6.89;68.09
75387;DHT22;63966;47.914;22.266;2024-03-25T18:13:33;6.82;68.47
75387;DHT22;63966;47.914;22.266;2024-03-25T18:16:36;6.75;68.56
75387;DHT22;63966;47.914;22.266;2024-03-25T18:19:39;6.81;69.10
75387;DHT22;63966;47.914;22.266;2024-03-25T18:22:41;6.95;69.14
75387;DHT22;63966;47.914;22.266;2024-03-25T18:25:44;6.98;68.62
75387;DHT22;63966;47.914;22.266;2024-03-25T18:28:47;7.07;69.00
75387;DHT22;63966;47.914;22.266;2024-03-25T18:31:49;7.06;70.46
75387;DHT22;63966;47.914;22.266;2024-03-25T18:34:52;7.10;68.78
75387;DHT22;63966;47.914;22.266;2024-03-25T18:37:54;7.17;68.40
75387;DHT22;63966;47.914;22.266;2024-03-25T18:40:57;7.19;67.82
75387;DHT22;63966;47.914;22.266;2024-03-25T18:43:59;7.17;67.69
75387;DHT22;63966;47.914;22.266;2024-03-25T18:47:02;6.99;68.07
75387;DHT22;63966;47.914;22.266;2024-03-25T18:50:06;6.74;69.61
75387;DHT22;63966;47.914;22.266;2024-03-25T18:53:09;6.69;70.54
75387;DHT22;63966;47.914;22.266;2024-03-25T18:56:12;6.81;70.77
75387;DHT22;63966;47.914;22.266;2024-03-25T18:59:14;6.88;70.91
75387;DHT22;63966;47.914;22.266;2024-03-25T19:02:17;6.89;70.84
75387;DHT22;63966;47.914;22.266;2024-03-25T19:05:20;6.84;72.32
75387;DHT22;63966;47.914;22.266;2024-03-25T19:08:23;6.77;72.71
75387;DHT22;63966;47.914;22.266;2024-03-25T19:11:26;6.78;74.19
75387;DHT22;63966;47.914;22.266;2024-03-25T19:14:29;6.78;71.52
75387;DHT22;63966;47.914;22.266;2024-03-25T19:17:31;6.81;70.80